»·PEaware :: ASH5863 KPHX-KAMA

ASH5863 :: KPHX-KAMA

FLIGHT INFORMATION

Flight Status: Arrived
Operator:
Mesa Airlines
More flights by this operator :: More flights under this callsign
Pilot: Drew L. (13237)
Aircraft: CANADAIR CL-600 CRJ-900
(CRJ9)
More flights by this aircraft type
Origin: KPHX Phoenix Sky Harbor Intl
United States
Destination: KAMA Amarillo Intl
United States
More flights between these airports :: More routes between these airports
Route: +FTHLS5 MAXXO CNX TCC J78 PNH
File this flight plan on PilotEdge
Remarks: PBN / D1 DOF / 180422 REG / N922SB OPR / ASH PER / D RMK / TCAS SIMBRIEF
Altitude:
(Current/Filed)
27,000ft
Speed:
(Current/Filed)
449kts
Departed: 21-Apr-18 06:33 PM
Arrived: 21-Apr-18 08:14 PM
Distance/Time
Traveled:
521nm/1:41
Distance/Time
To Go:
Arrived

Flight Plot

Page will automatically refresh every two minutes.

Flight plan parsing failed; only flown route is shown


Map Options




Map Legend


Flown Route
Filed Route
Departure Airport
Arrival Airport
Navaid (VOR, NDB)
Fix

Horizontal Profiles

Position Reports

Time Latitude Longitude Heading Altitude Ground
Speed
21-Apr-18 17:47 33.438032 -111.997341 118 1142ft 0kts
21-Apr-18 17:48 33.438032 -111.997341 118 1142ft 0kts
21-Apr-18 17:49 33.438032 -111.997341 118 1142ft 0kts
21-Apr-18 17:50 33.438032 -111.997341 118 1142ft 0kts
21-Apr-18 17:51 33.438032 -111.997341 118 1142ft 0kts
21-Apr-18 17:52 33.438032 -111.997341 118 1142ft 0kts
21-Apr-18 17:53 33.438032 -111.997341 118 1142ft 0kts
21-Apr-18 17:54 33.438032 -111.997341 118 1142ft 0kts
21-Apr-18 17:55 33.438032 -111.997341 118 1142ft 0kts
21-Apr-18 17:56 33.438032 -111.997341 118 1142ft 0kts
21-Apr-18 17:57 33.438032 -111.997341 118 1142ft 0kts
21-Apr-18 17:58 33.438032 -111.997341 118 1142ft 0kts
21-Apr-18 17:59 33.438032 -111.997341 118 1142ft 0kts
21-Apr-18 18:00 33.438032 -111.997341 118 1142ft 0kts
21-Apr-18 18:01 33.438032 -111.997341 118 1142ft 0kts
21-Apr-18 18:02 33.438032 -111.997341 118 1142ft 0kts
21-Apr-18 18:03 33.438032 -111.997341 118 1142ft 0kts
21-Apr-18 18:04 33.438032 -111.997341 118 1142ft 0kts
21-Apr-18 18:05 33.438032 -111.997341 118 1142ft 0kts
21-Apr-18 18:06 33.438032 -111.997341 118 1142ft 0kts
21-Apr-18 18:07 33.438032 -111.997341 118 1142ft 0kts
21-Apr-18 18:08 33.438032 -111.997341 118 1142ft 0kts
21-Apr-18 18:09 33.438032 -111.997341 118 1142ft 0kts
21-Apr-18 18:10 33.438032 -111.997341 118 1142ft 0kts
21-Apr-18 18:11 33.438032 -111.997341 118 1142ft 0kts
21-Apr-18 18:12 33.438032 -111.997341 118 1142ft 0kts
21-Apr-18 18:13 33.438032 -111.997341 118 1142ft 0kts
21-Apr-18 18:14 33.438032 -111.997341 118 1142ft 0kts
21-Apr-18 18:15 33.438032 -111.997341 118 1142ft 0kts
21-Apr-18 18:16 33.438032 -111.997341 118 1142ft 0kts
21-Apr-18 18:17 33.438032 -111.997341 118 1142ft 0kts
21-Apr-18 18:18 33.438032 -111.997341 118 1142ft 0kts
21-Apr-18 18:19 33.438032 -111.997341 118 1142ft 0kts
21-Apr-18 18:20 33.438032 -111.997341 118 1142ft 0kts
21-Apr-18 18:21 33.438034 -111.997347 118 1142ft 0kts
21-Apr-18 18:22 33.437968 -111.997801 0 1142ft 2kts
21-Apr-18 18:23 33.437709 -111.997802 0 1142ft 0kts
21-Apr-18 18:24 33.437709 -111.997802 0 1142ft 0kts
21-Apr-18 18:25 33.437709 -111.997802 0 1142ft 0kts
21-Apr-18 18:26 33.438103 -111.997801 0 1142ft 0kts
21-Apr-18 18:27 33.438416 -111.997800 0 1142ft 2kts
21-Apr-18 18:28 33.438992 -111.994761 90 1142ft 15kts
21-Apr-18 18:29 33.439698 -111.992389 4 1142ft 0kts
21-Apr-18 18:30 33.439699 -111.992389 4 1142ft 0kts
21-Apr-18 18:31 33.439716 -111.992387 4 1142ft 1kts
21-Apr-18 18:32 33.440829 -111.997331 270 1142ft 79kts
21-Apr-18 18:33 33.438419 -112.051910 245 2630ft 211kts
21-Apr-18 18:34 33.398040 -112.101528 227 4920ft 263kts
21-Apr-18 18:35 33.338791 -112.145423 211 8010ft 267kts
21-Apr-18 18:36 33.277612 -112.124618 109 7999ft 268kts
21-Apr-18 18:37 33.288648 -112.035610 70 10141ft 274kts
21-Apr-18 18:38 33.321842 -111.929866 68 12285ft 310kts
21-Apr-18 18:39 33.351572 -111.829250 68 14301ft 328kts
21-Apr-18 18:40 33.382773 -111.724294 68 16178ft 342kts
21-Apr-18 18:41 33.414896 -111.615210 69 17753ft 353kts
21-Apr-18 18:42 33.448040 -111.502251 69 19148ft 363kts
21-Apr-18 18:43 33.476143 -111.406201 69 20208ft 370kts
21-Apr-18 18:44 33.510479 -111.288659 69 21214ft 377kts
21-Apr-18 18:45 33.545314 -111.168459 70 22114ft 384kts
21-Apr-18 18:46 33.579524 -111.046189 69 22971ft 391kts
21-Apr-18 18:47 33.614466 -110.920890 69 24206ft 399kts
21-Apr-18 18:48 33.649586 -110.794403 69 25702ft 393kts
21-Apr-18 18:49 33.684065 -110.670083 69 26691ft 395kts
21-Apr-18 18:50 33.716146 -110.540783 72 27103ft 413kts
21-Apr-18 18:51 33.749365 -110.404179 72 27176ft 441kts
21-Apr-18 18:52 33.785046 -110.255724 72 27195ft 478kts
21-Apr-18 18:53 33.821129 -110.105618 72 27195ft 460kts
21-Apr-18 18:54 33.856137 -109.958976 72 27222ft 454kts
21-Apr-18 18:55 33.890591 -109.813547 72 27222ft 451kts
21-Apr-18 18:56 33.924937 -109.668341 72 27223ft 449kts
21-Apr-18 18:57 33.958700 -109.523656 72 27225ft 449kts
21-Apr-18 18:58 33.992610 -109.378690 72 27218ft 448kts
21-Apr-18 18:59 34.026248 -109.234044 71 27189ft 449kts
21-Apr-18 19:00 34.059680 -109.089388 71 27191ft 448kts
21-Apr-18 19:01 34.093004 -108.944184 71 27191ft 448kts
21-Apr-18 19:02 34.125963 -108.799409 71 27191ft 448kts
21-Apr-18 19:03 34.158871 -108.654011 71 27193ft 448kts
21-Apr-18 19:04 34.191522 -108.509027 71 27191ft 448kts
21-Apr-18 19:05 34.223876 -108.364157 70 27193ft 446kts
21-Apr-18 19:06 34.256097 -108.219179 70 27195ft 445kts
21-Apr-18 19:07 34.288177 -108.074992 70 27202ft 444kts
21-Apr-18 19:08 34.319677 -107.930841 70 27204ft 443kts
21-Apr-18 19:09 34.351321 -107.786516 70 27188ft 442kts
21-Apr-18 19:10 34.382503 -107.642627 70 27185ft 442kts
21-Apr-18 19:11 34.413602 -107.498920 70 27186ft 441kts
21-Apr-18 19:12 34.444488 -107.354614 70 27183ft 442kts
21-Apr-18 19:13 34.475056 -107.210374 69 27178ft 443kts
21-Apr-18 19:14 34.505822 -107.065277 69 27175ft 444kts
21-Apr-18 19:15 34.536405 -106.920349 69 27174ft 444kts
21-Apr-18 19:16 34.566847 -106.775158 69 27177ft 444kts
21-Apr-18 19:17 34.597392 -106.627912 69 27175ft 454kts
21-Apr-18 19:18 34.628336 -106.477805 69 27177ft 464kts
21-Apr-18 19:19 34.659830 -106.323660 69 27191ft 474kts
21-Apr-18 19:20 34.691826 -106.167130 69 27196ft 482kts
21-Apr-18 19:21 34.724045 -106.007377 69 27201ft 492kts
21-Apr-18 19:22 34.756863 -105.844398 69 27228ft 498kts
21-Apr-18 19:23 34.789629 -105.679838 69 27229ft 503kts
21-Apr-18 19:24 34.822380 -105.513912 69 27230ft 506kts
21-Apr-18 19:25 34.855129 -105.346497 69 27238ft 507kts
21-Apr-18 19:26 34.887607 -105.179190 69 27241ft 509kts
21-Apr-18 19:27 34.920021 -105.011089 69 27234ft 501kts
21-Apr-18 19:28 34.950080 -104.854272 68 27244ft 470kts
21-Apr-18 19:29 34.980008 -104.698296 69 27244ft 474kts
21-Apr-18 19:30 35.009556 -104.541391 69 27235ft 473kts
21-Apr-18 19:31 35.038767 -104.385358 69 27232ft 473kts
21-Apr-18 19:32 35.067872 -104.228752 69 27229ft 475kts
21-Apr-18 19:33 35.096121 -104.074714 69 25885ft 447kts
21-Apr-18 19:34 35.121555 -103.934699 68 23072ft 399kts
21-Apr-18 19:35 35.144862 -103.807448 68 20708ft 372kts
21-Apr-18 19:36 35.166981 -103.684893 69 18902ft 365kts
21-Apr-18 19:37 35.185248 -103.563415 78 17107ft 366kts
21-Apr-18 19:38 35.187552 -103.438351 82 15307ft 366kts
21-Apr-18 19:39 35.192312 -103.314586 84 13511ft 364kts
21-Apr-18 19:40 35.196036 -103.191616 85 11719ft 361kts
21-Apr-18 19:41 35.200029 -103.069872 85 10126ft 349kts
21-Apr-18 19:42 35.203531 -102.955544 85 10063ft 334kts
21-Apr-18 19:43 35.206970 -102.840377 86 10020ft 342kts
21-Apr-18 19:44 35.210276 -102.725582 85 10043ft 320kts
21-Apr-18 19:45 35.213187 -102.624953 85 10048ft 277kts
21-Apr-18 19:46 35.215493 -102.535545 84 10049ft 250kts
21-Apr-18 19:47 35.217697 -102.448551 85 10054ft 266kts
21-Apr-18 19:48 35.219987 -102.358356 85 10051ft 260kts
21-Apr-18 19:49 35.222292 -102.270589 85 8669ft 251kts
21-Apr-18 19:50 35.224161 -102.188239 90 7119ft 227kts
21-Apr-18 19:51 35.184077 -102.132656 136 7053ft 231kts
21-Apr-18 19:52 35.134464 -102.081146 136 7047ft 235kts
21-Apr-18 19:53 35.084764 -102.029459 136 7046ft 235kts
21-Apr-18 19:54 35.034955 -101.977562 136 7045ft 235kts
21-Apr-18 19:55 34.985167 -101.925776 136 7044ft 236kts
21-Apr-18 19:56 34.935777 -101.873213 125 7016ft 232kts
21-Apr-18 19:57 34.927824 -101.799256 86 7044ft 222kts
21-Apr-18 19:58 34.927567 -101.723948 76 7024ft 218kts
21-Apr-18 19:59 34.974763 -101.701144 354 7045ft 204kts
21-Apr-18 20:00 35.028449 -101.710721 339 7049ft 186kts
21-Apr-18 20:01 35.059096 -101.759572 294 6860ft 190kts
21-Apr-18 20:02 35.078934 -101.819601 311 6585ft 190kts
21-Apr-18 20:03 35.113587 -101.868919 315 6182ft 188kts
21-Apr-18 20:04 35.154791 -101.907984 329 5730ft 188kts
21-Apr-18 20:05 35.203777 -101.929122 351 6014ft 186kts
21-Apr-18 20:06 35.253202 -101.929372 3 5986ft 179kts
21-Apr-18 20:07 35.302946 -101.918306 20 5923ft 190kts
21-Apr-18 20:08 35.328596 -101.873503 100 5764ft 184kts
21-Apr-18 20:09 35.296537 -101.818647 121 5466ft 197kts
21-Apr-18 20:10 35.266976 -101.765994 119 5024ft 162kts
21-Apr-18 20:11 35.244834 -101.720776 118 4208ft 152kts
21-Apr-18 20:12 35.218128 -101.683936 136 3614ft 104kts
21-Apr-18 20:13 35.213432 -101.680695 228 3614ft 0kts
21-Apr-18 20:14 35.213976 -101.681986 317 3614ft 18kts
21-Apr-18 20:15 35.221088 -101.689948 317 3614ft 42kts
21-Apr-18 20:16 35.228273 -101.698020 289 3614ft 10kts
21-Apr-18 20:17 35.224550 -101.702956 226 3614ft 34kts
21-Apr-18 20:18 35.221881 -101.704784 225 3614ft 7kts
21-Apr-18 20:19 35.219683 -101.705778 176 3614ft 0kts
21-Apr-18 20:20 35.219683 -101.705778 176 3614ft 0kts
21-Apr-18 20:21 35.219683 -101.705778 176 3614ft 0kts
21-Apr-18 20:22 35.219683 -101.705778 176 3614ft 0kts
21-Apr-18 20:23 35.219683 -101.705778 176 3614ft 0kts
21-Apr-18 20:24 35.219683 -101.705778 176 3614ft 0kts
21-Apr-18 20:25 35.219683 -101.705778 176 3614ft 0kts
21-Apr-18 20:26 35.219683 -101.705778 176 3614ft 0kts

Navigation Log

Ident Type
Flight plan parsing failed, navigation log unavailable